Corupa, Brazil
Current Conditions -  °F | °C
As of 2:00 PM on Wednesday 26 Nov 2014 (Local Time) from SBJV Reporting Station
Broken Clouds Broken Clouds  
Wind Chill: 82°   Ceiling: 3000
Heat Index: 89°   Visibility: 6mi
Dew Point: 75°   Wind: 12mph
Humidity: 79%   Direction: 100°E
Pressure: 29.74"   Gusts: NA
Location:  26.45°S, 49.22°W
Report Text: SBJV 261600Z 10010KT 9999 FEW018 BKN030 28/24 Q1007
Loading
Personal Weather Stations






























Interactive Weather Map New forecast layout! Learn more

10-Day Weather Forecast

Advertisements
Track Severe Weather on mobile